Time;durP1;ratioP1;P1;durP2;ratioP2;P2;SDS_P1;SDS_P2;PMS_P1;PMS_P2;Temp;Humidity;BMP_temperature;BMP_pressure;BME280_temperature;BME280_humidity;BME280_pressure;Samples;Min_cycle;Max_cycle;Signal;HPM_P1;HPM_P2
2022/06/17 00:00:55;;;;;;;4.95;3.20;;;;;;;-148.56;100.00;61375.16;5011104;28;20029;-32
2022/06/17 00:03:22;;;;;;;6.07;2.95;;;;;;;-148.56;100.00;61375.16;5012684;28;20566;-30
2022/06/17 00:05:48;;;;;;;4.53;3.17;;;;;;;-148.56;100.00;61375.16;5008166;28;20061;-30
2022/06/17 00:08:25;;;;;;;3.88;2.70;;;;;;;-148.56;100.00;61375.16;5008250;28;20061;-30
2022/06/17 00:10:50;;;;;;;4.60;3.00;;;;;;;-148.56;100.00;61375.16;4978902;28;20040;-33
2022/06/17 00:13:17;;;;;;;4.05;2.90;;;;;;;-148.56;100.00;61375.16;5006987;28;20022;-30
2022/06/17 00:15:42;;;;;;;5.45;3.03;;;;;;;-148.56;100.00;61375.16;5008247;28;20764;-31
2022/06/17 00:18:08;;;;;;;4.45;2.78;;;;;;;-148.56;100.00;61375.16;5007641;28;20068;-31
2022/06/17 00:20:34;;;;;;;4.30;2.67;;;;;;;-148.56;100.00;61375.16;5001763;28;20583;-31
2022/06/17 00:23:00;;;;;;;3.97;2.58;;;;;;;-148.56;100.00;61375.16;4995633;28;20573;-30
2022/06/17 00:25:31;;;;;;;4.47;2.63;;;;;;;-148.56;100.00;61375.16;5004127;28;20033;-31
2022/06/17 00:27:56;;;;;;;4.38;2.88;;;;;;;-148.56;100.00;61375.16;5009002;28;20053;-30
2022/06/17 00:30:24;;;;;;;4.57;3.05;;;;;;;-148.56;100.00;61375.16;4993609;28;20132;-31
2022/06/17 00:32:54;;;;;;;4.47;2.65;;;;;;;-148.56;100.00;61375.16;5006508;28;20718;-31
2022/06/17 00:35:19;;;;;;;4.53;2.95;;;;;;;-148.56;100.00;61375.16;5012141;28;20033;-30
2022/06/17 00:37:45;;;;;;;3.95;2.70;;;;;;;-148.56;100.00;61375.16;5013808;28;20025;-30
2022/06/17 00:40:18;;;;;;;4.32;2.70;;;;;;;-148.56;100.00;61375.16;5012601;28;20037;-30
2022/06/17 00:42:44;;;;;;;4.13;2.92;;;;;;;-148.56;100.00;61375.16;4980965;28;20032;-29
2022/06/17 00:45:14;;;;;;;5.18;2.80;;;;;;;-148.56;100.00;61375.16;5009139;28;20850;-30
2022/06/17 00:47:44;;;;;;;3.43;2.80;;;;;;;-148.56;100.00;61375.16;4991516;28;20026;-31
2022/06/17 00:50:30;;;;;;;4.70;2.83;;;;;;;-148.56;100.00;61375.16;4975917;28;20029;-30
2022/06/17 00:53:20;;;;;;;3.60;2.53;;;;;;;-148.56;100.00;61375.16;4992485;28;20032;-31
2022/06/17 00:55:53;;;;;;;3.58;2.83;;;;;;;-148.56;100.00;61375.16;5008580;28;20029;-31
2022/06/17 00:58:30;;;;;;;4.53;2.65;;;;;;;-148.56;100.00;61375.16;5012552;28;20022;-30
2022/06/17 01:00:58;;;;;;;4.05;2.60;;;;;;;-148.56;100.00;61375.16;5011929;28;20030;-30
2022/06/17 01:03:27;;;;;;;4.07;2.80;;;;;;;-148.56;100.00;61375.16;5008657;28;20791;-31
2022/06/17 01:06:01;;;;;;;5.32;2.85;;;;;;;-148.56;100.00;61375.16;4979862;28;20037;-31
2022/06/17 01:11:14;;;;;;;3.90;2.58;;;;;;;-148.56;100.00;61375.16;5013602;28;20740;-32
2022/06/17 01:13:40;;;;;;;4.25;3.03;;;;;;;-148.56;100.00;61375.16;5010297;28;20091;-32
2022/06/17 01:16:05;;;;;;;4.13;2.95;;;;;;;-148.56;100.00;61375.16;4993367;28;20948;-30
2022/06/17 01:18:31;;;;;;;3.58;2.70;;;;;;;-148.56;100.00;61375.16;4992763;28;20036;-30
2022/06/17 01:20:57;;;;;;;4.03;2.40;;;;;;;-148.56;100.00;61375.16;4990077;28;20017;-31
2022/06/17 01:23:22;;;;;;;3.70;2.60;;;;;;;-148.56;100.00;61375.16;4989314;28;20059;-32
2022/06/17 01:25:48;;;;;;;4.15;2.72;;;;;;;-148.56;100.00;61375.16;4972509;28;20710;-30
2022/06/17 01:28:15;;;;;;;3.58;2.65;;;;;;;-148.56;100.00;61375.16;5009172;28;20029;-31
2022/06/17 01:30:43;;;;;;;4.07;2.70;;;;;;;-148.56;100.00;61375.16;5008001;28;20095;-30
2022/06/17 01:33:28;;;;;;;3.60;2.58;;;;;;;-148.56;100.00;61375.16;4995451;28;20025;-30
2022/06/17 01:36:10;;;;;;;3.67;2.45;;;;;;;-148.56;100.00;61375.16;5008404;28;20056;-31
2022/06/17 01:38:36;;;;;;;3.88;2.50;;;;;;;-148.56;100.00;61375.16;5009694;28;20141;-32
2022/06/17 01:41:02;;;;;;;4.20;2.72;;;;;;;-148.56;100.00;61375.16;4990270;28;20033;-30
2022/06/17 01:43:43;;;;;;;4.30;2.60;;;;;;;-148.56;100.00;61375.16;4989870;28;20018;-30
2022/06/17 01:46:14;;;;;;;3.53;2.42;;;;;;;-148.56;100.00;61375.16;4992689;28;20178;-30
2022/06/17 01:48:41;;;;;;;;;;;;;;;-148.56;100.00;61375.16;5009329;28;20025;-31
2022/06/17 01:51:06;;;;;;;4.07;2.47;;;;;;;-148.56;100.00;61375.16;4987061;28;19932;-34
2022/06/17 01:53:33;;;;;;;3.22;2.30;;;;;;;-148.56;100.00;61375.16;4983470;28;20029;-30
2022/06/17 01:56:10;;;;;;;3.33;2.45;;;;;;;-148.56;100.00;61375.16;4976299;28;20023;-30
2022/06/17 01:58:38;;;;;;;3.42;2.35;;;;;;;-148.56;100.00;61375.16;4988897;28;20027;-30
2022/06/17 02:01:04;;;;;;;4.32;2.47;;;;;;;-148.56;100.00;61375.16;5009468;28;20033;-31
2022/06/17 02:03:32;;;;;;;2.65;2.30;;;;;;;-148.56;100.00;61375.16;5007437;28;20034;-31
2022/06/17 02:06:08;;;;;;;3.17;2.42;;;;;;;-148.56;100.00;61375.16;4977015;28;20017;-30
2022/06/17 02:08:34;;;;;;;3.47;2.30;;;;;;;-148.56;100.00;61375.16;4992948;28;20033;-31
2022/06/17 02:10:59;;;;;;;3.58;2.42;;;;;;;-148.56;100.00;61375.16;5008311;28;20870;-30
2022/06/17 02:13:24;;;;;;;3.78;2.63;;;;;;;-148.56;100.00;61375.16;4971916;28;20033;-30
2022/06/17 02:15:52;;;;;;;2.90;2.30;;;;;;;-148.56;100.00;61375.16;5007118;28;20527;-32
2022/06/17 02:18:18;;;;;;;3.22;2.30;;;;;;;-148.56;100.00;61375.16;5007163;28;20033;-31
2022/06/17 02:20:43;;;;;;;4.10;2.40;;;;;;;-148.56;100.00;61375.16;4994068;28;20025;-30
2022/06/17 02:23:09;;;;;;;3.17;2.50;;;;;;;-148.56;100.00;61375.16;4975625;28;20797;-31
2022/06/17 02:25:37;;;;;;;3.40;2.47;;;;;;;-148.56;100.00;61375.16;5006791;28;20032;-29
2022/06/17 02:28:03;;;;;;;3.72;2.70;;;;;;;-148.56;100.00;61375.16;4979893;28;20029;-31
2022/06/17 02:30:28;;;;;;;3.15;2.10;;;;;;;-148.56;100.00;61375.16;4976946;28;20779;-31
2022/06/17 02:32:53;;;;;;;3.13;2.40;;;;;;;-148.56;100.00;61375.16;5009689;28;20040;-31
2022/06/17 02:35:50;;;;;;;3.42;2.40;;;;;;;-148.56;100.00;61375.16;4990102;28;20044;-30
2022/06/17 02:38:19;;;;;;;3.45;2.20;;;;;;;-148.56;100.00;61375.16;4992652;28;20028;-30
2022/06/17 02:40:50;;;;;;;4.53;2.10;;;;;;;-148.56;100.00;61375.16;4988509;28;20112;-30
2022/06/17 02:43:19;;;;;;;3.30;2.47;;;;;;;-148.56;100.00;61375.16;4986473;28;20727;-31
2022/06/17 02:46:00;;;;;;;2.85;2.25;;;;;;;-148.56;100.00;61375.16;4994570;28;20668;-31
2022/06/17 02:48:27;;;;;;;3.20;2.40;;;;;;;-148.56;100.00;61375.16;4989625;28;20036;-30
2022/06/17 02:50:54;;;;;;;2.55;2.20;;;;;;;-148.56;100.00;61375.16;4994532;28;20033;-29
2022/06/17 02:53:23;;;;;;;2.38;1.90;;;;;;;-148.56;100.00;61375.16;4996672;28;20041;-30
2022/06/17 02:55:48;;;;;;;3.35;2.40;;;;;;;-148.56;100.00;61375.16;4993459;28;20033;-30
2022/06/17 02:58:21;;;;;;;2.53;2.08;;;;;;;-148.56;100.00;61375.16;4987462;28;20021;-30
2022/06/17 03:00:47;;;;;;;3.42;2.40;;;;;;;-148.56;100.00;61375.16;4995780;28;20055;-30
2022/06/17 03:03:14;;;;;;;3.10;2.28;;;;;;;-148.56;100.00;61375.16;5012238;28;20464;-30
2022/06/17 03:05:41;;;;;;;3.15;2.38;;;;;;;-148.56;100.00;61375.16;4995599;28;20101;-30
2022/06/17 03:08:22;;;;;;;2.65;2.10;;;;;;;-148.56;100.00;61375.16;4976468;28;20033;-31
2022/06/17 03:10:47;;;;;;;3.67;2.40;;;;;;;-148.56;100.00;61375.16;5009871;28;20742;-31
2022/06/17 03:13:28;;;;;;;3.08;2.20;;;;;;;-148.56;100.00;61375.16;4991544;28;20022;-32
2022/06/17 03:15:55;;;;;;;3.03;2.30;;;;;;;-148.56;100.00;61375.16;4992058;28;20064;-30
2022/06/17 03:18:20;;;;;;;3.72;2.28;;;;;;;-148.56;100.00;61375.16;5016561;28;20474;-31
2022/06/17 03:20:46;;;;;;;2.70;2.22;;;;;;;-148.56;100.00;61375.16;5014911;28;20030;-31
2022/06/17 03:23:13;;;;;;;2.47;2.00;;;;;;;-148.56;100.00;61375.16;5009436;28;20044;-30
2022/06/17 03:26:10;;;;;;;2.78;2.05;;;;;;;-148.56;100.00;61375.16;4991667;28;20029;-31
2022/06/17 03:28:40;;;;;;;3.25;2.28;;;;;;;-148.56;100.00;61375.16;5008209;28;20033;-31
2022/06/17 03:31:06;;;;;;;2.37;1.90;;;;;;;-148.56;100.00;61375.16;5010430;28;20157;-30
2022/06/17 03:33:34;;;;;;;2.78;2.00;;;;;;;-148.56;100.00;61375.16;5009195;28;20124;-30
2022/06/17 03:36:02;;;;;;;3.15;2.15;;;;;;;-148.56;100.00;61375.16;4986999;28;20835;-30
2022/06/17 03:38:35;;;;;;;3.03;2.30;;;;;;;-148.56;100.00;61375.16;5007612;28;20115;-31
2022/06/17 03:41:22;;;;;;;3.60;2.40;;;;;;;-148.56;100.00;61375.16;4977994;28;20128;-32
2022/06/17 03:43:54;;;;;;;3.03;2.28;;;;;;;-148.56;100.00;61375.16;4987863;28;20037;-31
2022/06/17 03:46:20;;;;;;;2.95;2.30;;;;;;;-148.56;100.00;61375.16;4981577;28;20489;-30
2022/06/17 03:49:07;;;;;;;3.05;1.90;;;;;;;-148.56;100.00;61375.16;4995439;28;20228;-30
2022/06/17 03:51:32;;;;;;;3.67;2.30;;;;;;;-148.56;100.00;61375.16;5009210;28;20029;-30
2022/06/17 03:53:58;;;;;;;2.85;2.25;;;;;;;-148.56;100.00;61375.16;4999387;28;20565;-32
2022/06/17 03:56:31;;;;;;;2.60;1.90;;;;;;;-148.56;100.00;61375.16;5011170;28;20034;-31
2022/06/17 03:58:58;;;;;;;2.72;2.22;;;;;;;-148.56;100.00;61375.16;4990215;28;20013;-30
2022/06/17 04:01:23;;;;;;;2.22;1.85;;;;;;;-148.56;100.00;61375.16;5007496;28;20076;-32
2022/06/17 04:03:54;;;;;;;2.78;1.92;;;;;;;-148.56;100.00;61375.16;5010434;28;20120;-30
2022/06/17 04:06:21;;;;;;;2.67;2.20;;;;;;;-148.56;100.00;61375.16;4994655;28;20048;-30
2022/06/17 04:08:55;;;;;;;2.28;1.90;;;;;;;-148.56;100.00;61375.16;4997718;28;20025;-32
2022/06/17 04:11:21;;;;;;;3.30;2.22;;;;;;;-148.56;100.00;61375.16;5006949;28;20032;-31
2022/06/17 04:13:46;;;;;;;2.83;1.90;;;;;;;-148.56;100.00;61375.16;4995012;28;20060;-31
2022/06/17 04:16:37;;;;;;;2.42;2.13;;;;;;;-148.56;100.00;61375.16;4992955;28;20029;-31
2022/06/17 04:19:12;;;;;;;2.83;2.08;;;;;;;-148.56;100.00;61375.16;4994560;28;20041;-31
2022/06/17 04:21:37;;;;;;;3.15;2.08;;;;;;;-148.56;100.00;61375.16;5007404;28;20144;-33
2022/06/17 04:24:06;;;;;;;3.03;2.15;;;;;;;-148.56;100.00;61375.16;5008043;28;20033;-32
2022/06/17 04:26:32;;;;;;;2.92;2.35;;;;;;;-148.56;100.00;61375.16;4982113;28;20022;-31
2022/06/17 04:29:01;;;;;;;2.33;2.00;;;;;;;-148.56;100.00;61375.16;4978570;28;20049;-31
2022/06/17 04:31:27;;;;;;;2.83;2.00;;;;;;;-148.56;100.00;61375.16;4978754;28;20037;-30
2022/06/17 04:33:55;;;;;;;2.03;1.67;;;;;;;-148.56;100.00;61375.16;5012191;28;20026;-30
2022/06/17 04:36:41;;;;;;;2.45;1.65;;;;;;;-148.56;100.00;61375.16;4978334;28;20033;-30
2022/06/17 04:39:28;;;;;;;2.72;1.90;;;;;;;-148.56;100.00;61375.16;4984561;28;20040;-30
2022/06/17 04:41:55;;;;;;;2.35;1.80;;;;;;;-148.56;100.00;61375.16;4984052;28;21060;-31
2022/06/17 04:44:21;;;;;;;3.45;2.00;;;;;;;-148.56;100.00;61375.16;4979326;28;20026;-31
2022/06/17 04:47:26;;;;;;;2.22;1.83;;;;;;;-148.56;100.00;61375.16;5005089;28;20750;-32
2022/06/17 04:49:56;;;;;;;2.10;1.80;;;;;;;-148.56;100.00;61375.16;4956751;28;20588;-30
2022/06/17 04:52:30;;;;;;;2.47;1.83;;;;;;;-148.56;100.00;61375.16;4993936;28;20029;-29
2022/06/17 04:54:58;;;;;;;2.47;1.88;;;;;;;-148.56;100.00;61375.16;4995919;28;20041;-31
2022/06/17 04:57:24;;;;;;;3.40;2.15;;;;;;;-148.56;100.00;61375.16;4995182;28;20026;-30
2022/06/17 04:59:49;;;;;;;3.70;2.00;;;;;;;-148.56;100.00;61375.16;4976662;28;20025;-32
2022/06/17 05:02:25;;;;;;;3.17;2.00;;;;;;;-148.56;100.00;61375.16;5008372;28;21566;-31
2022/06/17 05:04:53;;;;;;;3.08;1.92;;;;;;;-148.56;100.00;61375.16;4992870;28;20036;-35
2022/06/17 05:07:18;;;;;;;2.78;2.10;;;;;;;-148.56;100.00;61375.16;5012523;28;20038;-35
2022/06/17 05:09:59;;;;;;;2.72;1.70;;;;;;;-148.56;100.00;61375.16;4990531;28;20057;-34
2022/06/17 05:12:47;;;;;;;2.27;1.70;;;;;;;-148.56;100.00;61375.16;4994272;28;20036;-31
2022/06/17 05:15:17;;;;;;;2.88;2.00;;;;;;;-148.56;100.00;61375.16;4989607;28;20100;-30
2022/06/17 05:17:42;;;;;;;1.90;1.63;;;;;;;-148.56;100.00;61375.16;5008308;28;20053;-30
2022/06/17 05:20:10;;;;;;;2.47;2.00;;;;;;;-148.56;100.00;61375.16;5007170;28;20021;-31
2022/06/17 05:23:06;;;;;;;3.22;1.90;;;;;;;-148.56;100.00;61375.16;4977447;28;20035;-31
2022/06/17 05:25:34;;;;;;;2.40;2.00;;;;;;;-148.56;100.00;61375.16;5002855;28;20140;-31
2022/06/17 05:27:59;;;;;;;2.58;1.80;;;;;;;-148.56;100.00;61375.16;5011151;28;20578;-31
2022/06/17 05:30:30;;;;;;;2.40;1.70;;;;;;;-148.56;100.00;61375.16;4986870;28;20037;-31
2022/06/17 05:32:55;;;;;;;2.88;2.10;;;;;;;-148.56;100.00;61375.16;4992763;28;20029;-33
2022/06/17 05:35:21;;;;;;;2.20;1.70;;;;;;;-148.56;100.00;61375.16;5006199;28;20064;-31
2022/06/17 05:37:47;;;;;;;3.17;2.00;;;;;;;-148.56;100.00;61375.16;5007256;28;20427;-31
2022/06/17 05:40:12;;;;;;;3.40;2.03;;;;;;;-148.56;100.00;61375.16;5010420;28;20029;-33
2022/06/17 05:42:38;;;;;;;2.60;2.00;;;;;;;-148.56;100.00;61375.16;5006734;28;20356;-30
2022/06/17 05:45:05;;;;;;;2.05;1.70;;;;;;;-148.56;100.00;61375.16;5005759;28;20107;-30
2022/06/17 05:47:30;;;;;;;2.33;1.80;;;;;;;-148.56;100.00;61375.16;5004303;28;20029;-31
2022/06/17 05:49:56;;;;;;;2.80;1.80;;;;;;;-148.56;100.00;61375.16;5007928;28;20179;-32
2022/06/17 05:52:21;;;;;;;2.28;1.80;;;;;;;-148.56;100.00;61375.16;5008381;28;20029;-31
2022/06/17 05:54:47;;;;;;;3.10;2.10;;;;;;;-148.56;100.00;61375.16;5012241;28;20032;-31
2022/06/17 05:57:12;;;;;;;2.72;1.83;;;;;;;-148.56;100.00;61375.16;5009891;28;20117;-31
2022/06/17 05:59:37;;;;;;;3.63;1.98;;;;;;;-148.56;100.00;61375.16;5005943;28;20049;-30
2022/06/17 06:02:03;;;;;;;2.50;1.98;;;;;;;-148.56;100.00;61375.16;5011210;28;20553;-32
2022/06/17 06:04:31;;;;;;;2.55;1.83;;;;;;;-148.56;100.00;61375.16;5006000;28;20628;-31
2022/06/17 06:06:56;;;;;;;2.05;1.70;;;;;;;-148.56;100.00;61375.16;5004472;28;20087;-30
2022/06/17 06:09:22;;;;;;;1.80;1.70;;;;;;;-148.56;100.00;61375.16;5009330;28;20619;-30
2022/06/17 06:11:47;;;;;;;2.15;1.67;;;;;;;-148.56;100.00;61375.16;5007308;28;20076;-30
2022/06/17 06:14:13;;;;;;;2.35;1.73;;;;;;;-148.56;100.00;61375.16;5008011;28;20036;-31
2022/06/17 06:16:38;;;;;;;4.40;1.77;;;;;;;-148.56;100.00;61375.16;5006901;28;20045;-30
2022/06/17 06:19:04;;;;;;;2.63;1.80;;;;;;;-148.56;100.00;61375.16;5010081;28;20033;-31
2022/06/17 06:21:30;;;;;;;2.05;1.60;;;;;;;-148.56;100.00;61375.16;5001757;28;20037;-32
2022/06/17 06:23:56;;;;;;;2.30;1.80;;;;;;;-148.56;100.00;61375.16;5009179;28;20645;-30
2022/06/17 06:26:21;;;;;;;2.38;1.80;;;;;;;-148.56;100.00;61375.16;5007648;28;20033;-30
2022/06/17 06:28:47;;;;;;;2.38;1.70;;;;;;;-148.56;100.00;61375.16;5009341;28;20037;-31
2022/06/17 06:31:22;;;;;;;2.03;1.70;;;;;;;-148.56;100.00;61375.16;5007639;28;20037;-34
2022/06/17 06:33:48;;;;;;;2.42;1.88;;;;;;;-148.56;100.00;61375.16;5008891;28;20660;-30
2022/06/17 06:36:13;;;;;;;2.03;1.60;;;;;;;-148.56;100.00;61375.16;5009399;28;20021;-33
2022/06/17 06:38:38;;;;;;;1.98;1.60;;;;;;;-148.56;100.00;61375.16;5008061;28;20037;-31
2022/06/17 06:41:04;;;;;;;2.28;1.70;;;;;;;-148.56;100.00;61375.16;5010433;28;20079;-30
2022/06/17 06:43:29;;;;;;;2.28;1.60;;;;;;;-148.56;100.00;61375.16;5009852;28;20514;-30
2022/06/17 06:45:55;;;;;;;2.47;1.90;;;;;;;-148.56;100.00;61375.16;5011139;28;20033;-30
2022/06/17 06:48:22;;;;;;;2.13;1.70;;;;;;;-148.56;100.00;61375.16;5007370;28;20196;-31
2022/06/17 06:50:48;;;;;;;2.55;1.80;;;;;;;-148.56;100.00;61375.16;5007135;28;20065;-30
2022/06/17 06:53:13;;;;;;;2.40;1.80;;;;;;;-148.56;100.00;61375.16;5000971;28;20026;-31
2022/06/17 06:55:39;;;;;;;2.40;1.63;;;;;;;-148.56;100.00;61375.16;5008043;28;20040;-30
2022/06/17 06:58:12;;;;;;;2.00;1.80;;;;;;;-148.56;100.00;61375.16;5009671;28;20083;-30
2022/06/17 07:00:46;;;;;;;2.03;1.70;;;;;;;-148.56;100.00;61375.16;5012942;28;20033;-32
2022/06/17 07:03:12;;;;;;;2.38;1.60;;;;;;;-148.56;100.00;61375.16;5011900;28;20032;-31
2022/06/17 07:05:40;;;;;;;2.13;1.55;;;;;;;-148.56;100.00;61375.16;5009419;28;20033;-30
2022/06/17 07:08:06;;;;;;;1.88;1.60;;;;;;;-148.56;100.00;61375.16;5010339;28;20038;-34
2022/06/17 07:10:33;;;;;;;1.83;1.67;;;;;;;-148.56;100.00;61375.16;5013518;28;20116;-31
2022/06/17 07:12:58;;;;;;;1.80;1.55;;;;;;;-148.56;100.00;61375.16;5010804;28;20037;-30
2022/06/17 07:15:24;;;;;;;1.75;1.63;;;;;;;-148.56;100.00;61375.16;4993415;28;20029;-31
2022/06/17 07:18:07;;;;;;;2.45;1.73;;;;;;;-148.56;100.00;61375.16;5012588;28;20072;-30
2022/06/17 07:20:39;;;;;;;2.47;1.80;;;;;;;-148.56;100.00;61375.16;5011802;28;20033;-34
2022/06/17 07:23:06;;;;;;;2.15;1.90;;;;;;;-148.56;100.00;61375.16;5008241;28;20632;-31
2022/06/17 07:25:31;;;;;;;2.08;1.63;;;;;;;-148.56;100.00;61375.16;5010452;28;20029;-31
2022/06/17 07:27:57;;;;;;;1.50;1.40;;;;;;;-148.56;100.00;61375.16;5008584;28;20045;-30
2022/06/17 07:30:22;;;;;;;2.10;1.90;;;;;;;-148.56;100.00;61375.16;5007972;28;20030;-29
2022/06/17 07:32:48;;;;;;;2.13;1.60;;;;;;;-148.56;100.00;61375.16;5013194;28;20033;-33
2022/06/17 07:35:15;;;;;;;1.77;1.50;;;;;;;-148.56;100.00;61375.16;5009716;28;20109;-30
2022/06/17 07:40:24;;;;;;;1.83;1.50;;;;;;;-148.56;100.00;61375.16;5011945;28;20060;-30
2022/06/17 07:42:50;;;;;;;1.90;1.70;;;;;;;-148.56;100.00;61375.16;5011962;28;20061;-32
2022/06/17 07:45:17;;;;;;;2.35;1.90;;;;;;;-148.56;100.00;61375.16;5013828;28;20029;-30
2022/06/17 07:47:42;;;;;;;2.90;1.65;;;;;;;-148.56;100.00;61375.16;5005202;28;20645;-32
2022/06/17 07:50:11;;;;;;;2.20;1.60;;;;;;;-148.56;100.00;61375.16;5007305;28;20025;-31
2022/06/17 07:52:36;;;;;;;2.22;1.80;;;;;;;-148.56;100.00;61375.16;5009429;28;20088;-30
2022/06/17 07:55:02;;;;;;;2.30;1.70;;;;;;;-148.56;100.00;61375.16;5009036;28;20135;-30
2022/06/17 07:57:28;;;;;;;1.60;1.45;;;;;;;-148.56;100.00;61375.16;5013690;28;20029;-31
2022/06/17 07:59:53;;;;;;;1.92;1.52;;;;;;;-148.56;100.00;61375.16;5012391;28;20668;-32
2022/06/17 08:02:18;;;;;;;1.80;1.55;;;;;;;-148.56;100.00;61375.16;5010925;28;20088;-31
2022/06/17 08:04:44;;;;;;;2.15;1.65;;;;;;;-148.56;100.00;61375.16;5012535;28;20037;-32
2022/06/17 08:07:09;;;;;;;1.83;1.52;;;;;;;-148.56;100.00;61375.16;5011607;28;20029;-31
2022/06/17 08:09:35;;;;;;;2.30;1.70;;;;;;;-148.56;100.00;61375.16;5013132;28;20052;-34
2022/06/17 08:12:00;;;;;;;1.60;1.50;;;;;;;-148.56;100.00;61375.16;5012008;28;20044;-31
2022/06/17 08:14:26;;;;;;;2.22;1.55;;;;;;;-148.56;100.00;61375.16;4983688;28;20047;-30
2022/06/17 08:16:52;;;;;;;2.05;1.45;;;;;;;-148.56;100.00;61375.16;5006573;28;20045;-30
2022/06/17 08:19:18;;;;;;;2.45;1.70;;;;;;;-148.56;100.00;61375.16;5010818;28;20524;-31
2022/06/17 08:21:43;;;;;;;2.75;1.70;;;;;;;-148.56;100.00;61375.16;5007931;28;20471;-30
2022/06/17 08:24:09;;;;;;;1.75;1.55;;;;;;;-148.56;100.00;61375.16;5008462;28;20027;-31
2022/06/17 08:26:34;;;;;;;2.15;1.60;;;;;;;-148.56;100.00;61375.16;5014613;28;20030;-30
2022/06/17 08:29:00;;;;;;;2.38;1.50;;;;;;;-148.56;100.00;61375.16;4984627;28;20109;-30
2022/06/17 08:31:25;;;;;;;1.65;1.55;;;;;;;-148.56;100.00;61375.16;4986622;28;20476;-31
2022/06/17 08:33:51;;;;;;;1.73;1.55;;;;;;;-148.56;100.00;61375.16;4986409;28;20025;-30
2022/06/17 08:36:19;;;;;;;2.15;1.50;;;;;;;-148.56;100.00;61375.16;4987038;28;20079;-32
2022/06/17 08:38:46;;;;;;;1.35;1.23;;;;;;;-148.56;100.00;61375.16;4972943;28;20041;-31
2022/06/17 08:41:27;;;;;;;2.03;1.58;;;;;;;-148.56;100.00;61375.16;4987632;28;20037;-31
2022/06/17 08:44:32;;;;;;;1.43;1.20;;;;;;;-148.56;100.00;61375.16;4988162;28;20029;-30
2022/06/17 08:47:22;;;;;;;2.33;1.70;;;;;;;-148.56;100.00;61375.16;5002547;28;20955;-31
2022/06/17 08:49:50;;;;;;;1.70;1.55;;;;;;;-148.56;100.00;61375.16;5011007;28;20025;-31
2022/06/17 08:52:34;;;;;;;2.70;1.67;;;;;;;-148.56;100.00;61375.16;5012050;28;20044;-32
2022/06/17 08:55:33;;;;;;;1.75;1.42;;;;;;;-148.56;100.00;61375.16;5007163;28;20040;-31
2022/06/17 08:58:04;;;;;;;1.70;1.50;;;;;;;-148.56;100.00;61375.16;5007144;28;20761;-30
2022/06/17 09:00:46;;;;;;;2.55;1.70;;;;;;;-148.56;100.00;61375.16;4989461;28;20912;-30
2022/06/17 09:03:47;;;;;;;1.75;1.30;;;;;;;-148.56;100.00;61375.16;4993171;28;20048;-32
2022/06/17 09:06:38;;;;;;;2.55;1.45;;;;;;;-148.56;100.00;61375.16;4908537;29;20104;-31
2022/06/17 09:09:30;;;;;;;2.22;1.33;;;;;;;-148.56;100.00;61375.16;4990890;28;20029;-31
2022/06/17 09:12:20;;;;;;;1.52;1.42;;;;;;;-148.56;100.00;61375.16;4982289;28;20048;-30
2022/06/17 09:14:55;;;;;;;2.22;1.35;;;;;;;-148.56;100.00;61375.16;4986721;28;20036;-34
2022/06/17 09:17:55;;;;;;;1.98;1.60;;;;;;;-148.56;100.00;61375.16;4988827;28;20529;-30
2022/06/17 09:20:23;;;;;;;2.25;1.60;;;;;;;-148.56;100.00;61375.16;5008148;28;20072;-32
2022/06/17 09:22:54;;;;;;;2.25;1.52;;;;;;;-148.56;100.00;61375.16;4976654;28;20033;-32
2022/06/17 09:25:23;;;;;;;1.63;1.45;;;;;;;-148.56;100.00;61375.16;4968588;28;20045;-31
2022/06/17 09:27:49;;;;;;;1.85;1.35;;;;;;;-148.56;100.00;61375.16;4993979;28;20030;-30
2022/06/17 09:30:24;;;;;;;1.67;1.30;;;;;;;-148.56;100.00;61375.16;5007754;28;20451;-31
2022/06/17 09:33:17;;;;;;;1.70;1.40;;;;;;;-148.56;100.00;61375.16;4977239;28;20033;-31
2022/06/17 09:36:09;;;;;;;2.00;1.48;;;;;;;-148.56;100.00;61375.16;4980795;28;20037;-30
2022/06/17 09:38:40;;;;;;;;;;;;;;;-148.56;100.00;61375.16;4992695;28;20601;-33
2022/06/17 09:41:29;;;;;;;2.22;1.40;;;;;;;-148.56;100.00;61375.16;5009511;28;19925;-29
2022/06/17 09:44:06;;;;;;;1.98;1.60;;;;;;;-148.56;100.00;61375.16;4974115;28;20029;-31
2022/06/17 09:46:36;;;;;;;1.50;1.40;;;;;;;-148.56;100.00;61375.16;4966396;28;20178;-30
2022/06/17 09:49:21;;;;;;;2.00;1.70;;;;;;;-148.56;100.00;61375.16;4963371;28;20087;-33
2022/06/17 09:51:57;;;;;;;1.30;1.20;;;;;;;-148.56;100.00;61375.16;4956803;28;20107;-31
2022/06/17 09:54:29;;;;;;;1.92;1.40;;;;;;;-148.56;100.00;61375.16;4947758;28;20088;-32
2022/06/17 09:57:14;;;;;;;1.65;1.52;;;;;;;-148.56;100.00;61375.16;4967850;28;20021;-33
2022/06/17 09:59:47;;;;;;;1.60;1.40;;;;;;;-148.56;100.00;61375.16;4971465;28;20095;-32
2022/06/17 10:02:22;;;;;;;1.73;1.35;;;;;;;-148.56;100.00;61375.16;4948004;28;20037;-30
2022/06/17 10:04:49;;;;;;;2.35;1.20;;;;;;;-148.56;100.00;61375.16;4970945;28;20047;-32
2022/06/17 10:07:39;;;;;;;1.50;1.33;;;;;;;-148.56;100.00;61375.16;4949362;28;20246;-30
2022/06/17 10:10:28;;;;;;;1.50;1.40;;;;;;;-148.56;100.00;61375.16;4961584;28;20056;-31
2022/06/17 10:12:57;;;;;;;2.80;1.50;;;;;;;-148.56;100.00;61375.16;4946394;28;20062;-30
2022/06/17 10:19:10;;;;;;;1.58;1.40;;;;;;;-148.56;100.00;61375.16;4947464;28;20134;-30
2022/06/17 10:21:57;;;;;;;2.28;1.40;;;;;;;-148.56;100.00;61375.16;4960415;28;20037;-34
2022/06/17 10:24:55;;;;;;;1.52;1.42;;;;;;;-148.56;100.00;61375.16;4947847;28;20886;-32
2022/06/17 10:27:27;;;;;;;1.58;1.40;;;;;;;-148.56;100.00;61375.16;4963044;28;20030;-33
2022/06/17 10:29:58;;;;;;;;;;;;;;;-148.56;100.00;61375.16;4953930;28;20293;-31
2022/06/17 10:32:24;;;;;;;1.63;1.40;;;;;;;-148.56;100.00;61375.16;4958273;28;19983;-31
2022/06/17 10:34:54;;;;;;;1.63;1.20;;;;;;;-148.56;100.00;61375.16;4967079;28;21361;-31
2022/06/17 10:37:19;;;;;;;1.45;1.27;;;;;;;-148.56;100.00;61375.16;4946379;28;20119;-31
2022/06/17 10:39:45;;;;;;;1.35;1.25;;;;;;;-148.56;100.00;61375.16;4963157;28;20386;-31
2022/06/17 10:42:15;;;;;;;1.90;1.40;;;;;;;-148.56;100.00;61375.16;4944086;28;22153;-31
2022/06/17 10:44:40;;;;;;;1.27;1.17;;;;;;;-148.56;100.00;61375.16;4941500;28;20835;-30
2022/06/17 10:47:28;;;;;;;1.70;1.48;;;;;;;-148.56;100.00;61375.16;4973927;28;20018;-30
2022/06/17 10:49:58;;;;;;;1.85;1.40;;;;;;;-148.56;100.00;61375.16;4992174;28;20034;-30
2022/06/17 10:52:40;;;;;;;1.70;1.30;;;;;;;-148.56;100.00;61375.16;5009817;28;20037;-32
2022/06/17 10:55:17;;;;;;;1.25;1.15;;;;;;;-148.56;100.00;61375.16;4991865;28;20037;-32
2022/06/17 10:58:11;;;;;;;1.30;1.20;;;;;;;-148.56;100.00;61375.16;4989812;28;20392;-30
2022/06/17 11:00:45;;;;;;;1.50;1.13;;;;;;;-148.56;100.00;61375.16;5010144;28;20740;-30
2022/06/17 11:03:15;;;;;;;2.28;1.30;;;;;;;-148.56;100.00;61375.16;5010760;28;22306;-30
2022/06/17 11:05:41;;;;;;;1.40;1.23;;;;;;;-148.56;100.00;61375.16;5004256;28;20028;-30
2022/06/17 11:08:18;;;;;;;1.30;1.20;;;;;;;-148.56;100.00;61375.16;4991147;28;20287;-30
2022/06/17 11:10:48;;;;;;;1.38;1.27;;;;;;;-148.56;100.00;61375.16;4987973;28;20037;-31
2022/06/17 11:13:14;;;;;;;1.88;1.52;;;;;;;-148.56;100.00;61375.16;4978442;28;20033;-30
2022/06/17 11:15:48;;;;;;;1.50;1.20;;;;;;;-148.56;100.00;61375.16;4987421;28;20801;-30
2022/06/17 11:18:16;;;;;;;2.22;1.48;;;;;;;-148.56;100.00;61375.16;4992264;28;20477;-31
2022/06/17 11:20:51;;;;;;;1.65;1.42;;;;;;;-148.56;100.00;61375.16;5005084;28;20025;-30
2022/06/17 11:23:33;;;;;;;1.63;1.40;;;;;;;-148.56;100.00;61375.16;4992262;28;20035;-31
2022/06/17 11:26:20;;;;;;;1.65;1.40;;;;;;;-148.56;100.00;61375.16;4973779;28;20033;-31
2022/06/17 11:28:47;;;;;;;1.30;1.20;;;;;;;-148.56;100.00;61375.16;5011810;28;20033;-30
2022/06/17 11:31:20;;;;;;;1.55;1.10;;;;;;;-148.56;100.00;61375.16;5005666;28;20196;-31
2022/06/17 11:33:54;;;;;;;1.33;1.23;;;;;;;-148.56;100.00;61375.16;5005192;28;20026;-31
2022/06/17 11:36:30;;;;;;;1.30;1.10;;;;;;;-148.56;100.00;61375.16;5006184;28;20052;-31